Decoded Metar for KLHQ (LANCASTER in OH, USA) (IATA:LHQ) | Meteo·Mobile Aviation Weather
aviador You're here:

KLHQ Decoded Metar

LANCASTER in OH, USA
Report Time2018-11-12 21:53:00
UTC Time2018-11-12 22:30:59
Flight Rules vfr VFR
Wind100° at 03 kt
W.Decomp.*RWY 10: 3.0 kt HW 0.3 kt RCW
W.Rank100° ranks 34
Current wind is below 100° avg. (5.7)
Visibility9999 m
Phenomena:N/A
Clouds:Overcast 100 Hf
Expected CloudBase > 2,400 ft AGL from Temp-Dew spread
Ceiling10,000 ft
Temp04°C (ISA -9)
Dew Point-2°C (65% RH)
AAT0.7°C
QNH1023 hPa
Density Alt-535 ft
Elevation853 ft
Report Wrong Elevation
Raw Report
KLHQ 122153Z AUTO 10003KT 10SM OVC100 04/M02 A3020 RMK AO2 SLP233
T00391017=

Extra information for KLHQ:More info

Metar Taf Metar & Taf Last 4 Metars F.Rules Stats Wind Profile Meteogram Temp Stats Airport Information Weather charts Add Link Nearby VenuesMetar ALERT Operation Metar Decoded Social comments

AIRNAV info for KLHQ